createdAt,value
2018-09-25T00:00:26.713Z,11.80
2018-09-25T00:03:01.246Z,11.80
2018-09-25T00:05:34.744Z,11.81
2018-09-25T00:08:08.272Z,11.85
2018-09-25T00:10:41.896Z,11.81
2018-09-25T00:13:15.619Z,11.80
2018-09-25T00:15:49.121Z,11.84
2018-09-25T00:18:22.685Z,11.91
2018-09-25T00:20:56.365Z,11.91
2018-09-25T00:23:30.133Z,11.95
2018-09-25T00:26:03.686Z,11.96
2018-09-25T00:28:37.198Z,11.97
2018-09-25T00:31:10.783Z,12.00
2018-09-25T00:33:44.525Z,11.95
2018-09-25T00:36:18.116Z,11.93
2018-09-25T00:38:51.653Z,11.99
2018-09-25T00:41:25.162Z,11.99
2018-09-25T00:43:58.669Z,11.70
2018-09-25T00:46:32.215Z,11.41
2018-09-25T00:49:05.789Z,11.45
2018-09-25T00:51:39.270Z,11.61
2018-09-25T00:54:12.741Z,11.66
2018-09-25T00:56:46.292Z,11.79
2018-09-25T00:59:20.003Z,11.89
2018-09-25T01:01:53.629Z,11.96
2018-09-25T01:04:27.157Z,11.98
2018-09-25T01:07:00.705Z,12.06
2018-09-25T01:09:34.244Z,12.14
2018-09-25T01:12:07.921Z,12.16
2018-09-25T01:14:41.449Z,12.17
2018-09-25T01:17:14.921Z,12.17
2018-09-25T01:19:48.597Z,12.18
2018-09-25T01:22:22.122Z,12.14
2018-09-25T01:24:55.657Z,12.13
2018-09-25T01:27:29.234Z,12.18
2018-09-25T01:30:02.740Z,12.19
2018-09-25T01:32:36.401Z,12.18
2018-09-25T01:35:09.954Z,12.15
2018-09-25T01:37:43.664Z,12.16
2018-09-25T01:40:17.365Z,12.19
2018-09-25T01:42:50.818Z,12.15
2018-09-25T01:45:24.537Z,12.11
2018-09-25T01:47:58.237Z,12.06
2018-09-25T01:50:31.939Z,12.07
2018-09-25T01:53:05.645Z,12.08
2018-09-25T01:55:39.252Z,12.06
2018-09-25T01:58:12.901Z,11.90
2018-09-25T02:00:46.369Z,11.84
2018-09-25T02:03:19.868Z,11.88
2018-09-25T02:05:53.621Z,11.88
2018-09-25T02:08:27.145Z,11.79
2018-09-25T02:11:00.825Z,11.63
2018-09-25T02:13:34.448Z,11.55
2018-09-25T02:16:07.987Z,11.52
2018-09-25T02:18:41.669Z,11.47
2018-09-25T02:21:15.424Z,11.42
2018-09-25T02:23:48.997Z,11.43
2018-09-25T02:26:22.578Z,11.47
2018-09-25T02:28:56.215Z,11.49
2018-09-25T02:31:29.754Z,11.47
2018-09-25T02:34:03.344Z,11.51
2018-09-25T02:36:36.958Z,11.48
2018-09-25T02:39:14.429Z,11.51
2018-09-25T02:41:48.477Z,11.54
2018-09-25T02:44:22.097Z,11.57
2018-09-25T02:46:55.581Z,11.52
2018-09-25T02:49:29.178Z,11.49
2018-09-25T02:52:02.714Z,11.51
2018-09-25T02:54:36.230Z,11.44
2018-09-25T02:57:09.849Z,11.43
2018-09-25T02:59:43.345Z,11.44
2018-09-25T03:02:16.837Z,11.48
2018-09-25T03:04:50.402Z,11.45
2018-09-25T03:07:24.082Z,11.40
2018-09-25T03:09:57.589Z,11.33
2018-09-25T03:12:31.168Z,11.33
2018-09-25T03:15:04.670Z,11.32
2018-09-25T03:17:38.169Z,11.29
2018-09-25T03:20:11.621Z,11.27
2018-09-25T03:22:45.409Z,11.26
2018-09-25T03:25:19.006Z,11.29
2018-09-25T03:27:52.590Z,11.27
2018-09-25T03:30:26.164Z,11.24
2018-09-25T03:32:59.819Z,11.19
2018-09-25T03:35:33.537Z,11.22
2018-09-25T03:38:07.114Z,11.18
2018-09-25T03:40:40.601Z,11.21
2018-09-25T03:43:14.088Z,11.18
2018-09-25T03:45:47.537Z,11.15
2018-09-25T03:48:21.117Z,11.17
2018-09-25T03:50:54.766Z,11.12
2018-09-25T03:53:28.446Z,11.11
2018-09-25T03:56:02.036Z,10.91
2018-09-25T03:58:35.651Z,10.92
2018-09-25T04:01:09.402Z,10.92
2018-09-25T04:03:43.197Z,11.00
2018-09-25T04:06:16.862Z,11.09
2018-09-25T04:08:50.409Z,11.13
2018-09-25T04:11:24.182Z,11.22
2018-09-25T04:13:57.925Z,11.22
2018-09-25T04:16:31.452Z,11.20
2018-09-25T04:19:05.122Z,11.12
2018-09-25T04:21:38.765Z,11.11
2018-09-25T04:24:12.269Z,11.07
2018-09-25T04:26:45.977Z,11.04
2018-09-25T04:29:19.507Z,11.00
2018-09-25T04:31:52.981Z,10.93
2018-09-25T04:34:26.544Z,10.92
2018-09-25T04:37:00.162Z,10.98
2018-09-25T04:39:33.774Z,11.05
2018-09-25T04:42:07.245Z,11.08
2018-09-25T04:44:40.982Z,11.09
2018-09-25T04:47:14.488Z,10.97
2018-09-25T04:49:48.016Z,10.95
2018-09-25T04:52:22.576Z,10.90
2018-09-25T04:54:56.261Z,8.58
2018-09-25T04:57:29.954Z,11.01
2018-09-25T05:00:03.517Z,11.07
2018-09-25T05:02:37.185Z,11.11
2018-09-25T05:05:10.910Z,11.15
2018-09-25T05:07:44.561Z,11.11
2018-09-25T05:10:18.139Z,11.15
2018-09-25T05:12:51.649Z,11.16
2018-09-25T05:15:25.180Z,11.12
2018-09-25T05:17:58.916Z,11.02
2018-09-25T05:20:32.565Z,11.04
2018-09-25T05:23:06.262Z,11.10
2018-09-25T05:25:39.809Z,11.14
2018-09-25T05:28:13.469Z,11.14
2018-09-25T05:30:47.041Z,11.07
2018-09-25T05:33:20.615Z,11.08
2018-09-25T05:35:54.906Z,11.14
2018-09-25T05:38:28.496Z,11.14
2018-09-25T05:41:02.038Z,10.94
2018-09-25T05:43:35.645Z,10.74
2018-09-25T05:46:09.366Z,10.73
2018-09-25T05:48:43.071Z,10.77
2018-09-25T05:51:16.798Z,10.79
2018-09-25T05:53:50.289Z,10.88
2018-09-25T05:56:23.879Z,10.97
2018-09-25T05:58:57.523Z,11.01
2018-09-25T06:01:31.049Z,11.04
2018-09-25T06:04:04.471Z,11.13
2018-09-25T06:06:38.033Z,10.98
2018-09-25T06:09:13.230Z,11.00
2018-09-25T06:11:46.794Z,11.12
2018-09-25T06:14:20.461Z,11.10
2018-09-25T06:16:54.044Z,11.15
2018-09-25T06:19:27.593Z,11.22
2018-09-25T06:22:01.101Z,11.29
2018-09-25T06:24:34.750Z,11.32
2018-09-25T06:27:08.332Z,11.42
2018-09-25T06:29:41.773Z,11.51
2018-09-25T06:32:15.397Z,11.55
2018-09-25T06:34:48.856Z,11.58
2018-09-25T06:37:22.492Z,11.66
2018-09-25T06:39:55.977Z,11.75
2018-09-25T06:42:29.452Z,11.83
2018-09-25T06:45:03.026Z,11.82
2018-09-25T06:47:36.589Z,11.77
2018-09-25T06:50:10.081Z,11.74
2018-09-25T06:52:43.617Z,11.78
2018-09-25T06:55:17.461Z,11.85
2018-09-25T06:57:51.185Z,11.92
2018-09-25T07:00:24.716Z,11.90
2018-09-25T07:02:58.426Z,11.94
2018-09-25T07:05:31.977Z,11.98
2018-09-25T07:08:05.509Z,12.04
2018-09-25T07:10:39.126Z,11.97
2018-09-25T07:13:12.939Z,12.02
2018-09-25T07:15:46.454Z,12.05
2018-09-25T07:18:20.145Z,12.07
2018-09-25T07:20:53.838Z,12.11
2018-09-25T07:23:27.371Z,12.15
2018-09-25T07:26:00.945Z,12.24
2018-09-25T07:28:34.589Z,12.27
2018-09-25T07:31:08.242Z,12.26
2018-09-25T07:33:41.842Z,12.25
2018-09-25T07:36:15.518Z,12.33
2018-09-25T07:38:49.044Z,12.37
2018-09-25T07:41:22.593Z,12.39
2018-09-25T07:43:56.369Z,12.45
2018-09-25T07:46:29.933Z,12.48
2018-09-25T07:49:04.139Z,12.51
2018-09-25T07:51:38.697Z,12.63
2018-09-25T07:54:14.986Z,12.79
2018-09-25T07:56:51.135Z,12.91
2018-09-25T07:59:25.747Z,12.87
2018-09-25T08:02:00.013Z,12.85
2018-09-25T08:04:34.213Z,12.96
2018-09-25T08:07:08.486Z,13.01
2018-09-25T08:09:43.348Z,13.10
2018-09-25T08:12:17.414Z,13.07
2018-09-25T08:14:51.574Z,13.11
2018-09-25T08:17:25.546Z,13.25
2018-09-25T08:19:59.431Z,13.24
2018-09-25T08:22:34.263Z,13.32
2018-09-25T08:25:08.267Z,13.36
2018-09-25T08:27:42.348Z,13.41
2018-09-25T08:30:15.957Z,13.37
2018-09-25T08:32:49.391Z,13.51
2018-09-25T08:35:23.027Z,13.56
2018-09-25T08:37:56.612Z,13.61
2018-09-25T08:40:30.239Z,13.70
2018-09-25T08:43:03.645Z,13.76
2018-09-25T08:45:37.143Z,13.83
2018-09-25T08:48:10.853Z,13.90
2018-09-25T08:50:44.520Z,13.92
2018-09-25T08:53:18.186Z,14.04
2018-09-25T08:55:51.706Z,14.04
2018-09-25T08:58:25.394Z,14.17
2018-09-25T09:00:59.592Z,14.28
2018-09-25T09:03:33.654Z,14.36
2018-09-25T09:06:07.298Z,14.44
2018-09-25T09:08:40.949Z,14.52
2018-09-25T09:11:14.878Z,14.68
2018-09-25T09:13:48.482Z,14.70
2018-09-25T09:16:22.121Z,14.85
2018-09-25T09:18:56.109Z,14.94
2018-09-25T09:21:29.694Z,15.04
2018-09-25T09:24:03.293Z,15.07
2018-09-25T09:26:36.761Z,15.11
2018-09-25T09:29:10.430Z,15.06
2018-09-25T09:31:44.043Z,15.28
2018-09-25T09:34:17.870Z,15.35
2018-09-25T09:36:51.895Z,15.37
2018-09-25T09:39:25.906Z,15.50
2018-09-25T09:41:59.953Z,15.67
2018-09-25T09:44:33.837Z,15.79
2018-09-25T09:47:07.967Z,15.97
2018-09-25T09:49:42.292Z,16.03
2018-09-25T09:52:16.393Z,16.10
2018-09-25T09:54:50.388Z,16.18
2018-09-25T09:57:24.685Z,16.26
2018-09-25T09:59:58.805Z,16.29
2018-09-25T10:02:32.932Z,16.32
2018-09-25T10:05:06.667Z,16.34
2018-09-25T10:07:41.515Z,16.25
2018-09-25T10:10:15.140Z,16.18
2018-09-25T10:12:48.611Z,16.14
2018-09-25T10:15:22.327Z,16.05
2018-09-25T10:17:55.921Z,16.10
2018-09-25T10:20:29.422Z,16.09
2018-09-25T10:23:03.061Z,16.21
2018-09-25T10:25:36.779Z,16.24
2018-09-25T10:28:10.366Z,16.21
2018-09-25T10:30:43.980Z,16.15
2018-09-25T10:33:17.652Z,16.57
2018-09-25T10:35:51.205Z,17.00
2018-09-25T10:38:24.749Z,16.98
2018-09-25T10:40:58.472Z,16.92
2018-09-25T10:43:32.133Z,16.80
2018-09-25T10:46:05.903Z,16.86
2018-09-25T10:48:46.213Z,16.91
2018-09-25T10:51:19.849Z,16.73
2018-09-25T10:53:53.371Z,16.62
2018-09-25T10:56:27.029Z,16.78
2018-09-25T10:59:00.701Z,16.89
2018-09-25T11:01:34.233Z,17.04
2018-09-25T11:04:07.762Z,17.27
2018-09-25T11:06:41.515Z,17.33
2018-09-25T11:09:15.214Z,17.44
2018-09-25T11:11:48.940Z,17.43
2018-09-25T11:14:22.621Z,17.27
2018-09-25T11:16:56.101Z,17.12
2018-09-25T11:19:29.712Z,17.06
2018-09-25T11:22:03.237Z,17.22
2018-09-25T11:24:36.720Z,17.30
2018-09-25T11:27:10.316Z,17.35
2018-09-25T11:29:44.008Z,17.27
2018-09-25T11:32:17.721Z,17.22
2018-09-25T11:34:51.337Z,17.16
2018-09-25T11:37:24.854Z,16.98
2018-09-25T11:39:59.301Z,17.01
2018-09-25T11:42:32.933Z,16.98
2018-09-25T11:45:06.601Z,17.02
2018-09-25T11:47:47.284Z,17.17
2018-09-25T11:50:20.767Z,17.23
2018-09-25T11:52:54.391Z,17.20
2018-09-25T11:55:28.089Z,17.18
2018-09-25T11:58:01.797Z,17.28
2018-09-25T12:00:35.636Z,17.47
2018-09-25T12:03:09.286Z,17.51
2018-09-25T12:05:42.892Z,17.69
2018-09-25T12:08:16.666Z,17.90
2018-09-25T12:10:50.341Z,18.28
2018-09-25T12:13:23.868Z,18.35
2018-09-25T12:15:57.572Z,18.09
2018-09-25T12:18:31.181Z,17.93
2018-09-25T12:21:04.721Z,17.94
2018-09-25T12:23:39.014Z,18.08
2018-09-25T12:26:12.714Z,18.26
2018-09-25T12:28:46.285Z,18.38
2018-09-25T12:31:19.929Z,18.51
2018-09-25T12:33:53.633Z,18.54
2018-09-25T12:36:27.333Z,18.65
2018-09-25T12:39:00.905Z,18.47
2018-09-25T12:41:34.564Z,18.41
2018-09-25T12:44:08.208Z,18.49
2018-09-25T12:46:41.948Z,18.47
2018-09-25T12:49:15.598Z,18.43
2018-09-25T12:51:49.202Z,18.37
2018-09-25T12:54:22.770Z,18.30
2018-09-25T12:56:56.599Z,18.15
2018-09-25T12:59:30.105Z,18.31
2018-09-25T13:02:03.749Z,18.37
2018-09-25T13:04:37.407Z,18.49
2018-09-25T13:07:11.049Z,18.55
2018-09-25T13:09:44.818Z,18.64
2018-09-25T13:12:18.469Z,18.55
2018-09-25T13:14:52.216Z,18.76
2018-09-25T13:17:26.664Z,18.94
2018-09-25T13:20:00.178Z,19.04
2018-09-25T13:22:33.861Z,19.13
2018-09-25T13:25:07.417Z,19.16
2018-09-25T13:27:41.029Z,19.25
2018-09-25T13:30:14.746Z,19.15
2018-09-25T13:32:48.229Z,19.26
2018-09-25T13:35:21.729Z,19.20
2018-09-25T13:37:55.385Z,19.03
2018-09-25T13:40:29.130Z,19.10
2018-09-25T13:43:02.720Z,19.09
2018-09-25T13:45:36.188Z,19.07
2018-09-25T13:48:09.825Z,19.03
2018-09-25T13:50:43.449Z,18.96
2018-09-25T13:53:16.960Z,18.84
2018-09-25T13:55:50.529Z,18.67
2018-09-25T13:58:24.216Z,18.61
2018-09-25T14:00:57.898Z,18.55
2018-09-25T14:03:31.573Z,18.49
2018-09-25T14:06:05.181Z,18.47
2018-09-25T14:08:38.886Z,18.48
2018-09-25T14:11:12.360Z,18.49
2018-09-25T14:13:46.092Z,18.46
2018-09-25T14:16:19.609Z,18.45
2018-09-25T14:18:53.281Z,18.41
2018-09-25T14:21:26.804Z,18.44
2018-09-25T14:24:00.385Z,18.69
2018-09-25T14:26:33.956Z,18.86
2018-09-25T14:29:07.665Z,18.83
2018-09-25T14:31:41.341Z,18.77
2018-09-25T14:34:14.844Z,18.78
2018-09-25T14:36:48.441Z,18.70
2018-09-25T14:39:22.060Z,18.64
2018-09-25T14:41:55.761Z,18.63
2018-09-25T14:44:29.364Z,18.68
2018-09-25T14:47:03.435Z,18.64
2018-09-25T14:49:37.177Z,18.69
2018-09-25T14:52:10.818Z,18.71
2018-09-25T14:54:44.604Z,18.72
2018-09-25T14:57:18.417Z,18.87
2018-09-25T14:59:52.030Z,18.90
2018-09-25T15:02:25.553Z,18.91
2018-09-25T15:04:59.186Z,18.85
2018-09-25T15:07:32.898Z,18.79
2018-09-25T15:10:06.441Z,18.81
2018-09-25T15:12:40.089Z,18.73
2018-09-25T15:15:13.717Z,18.87
2018-09-25T15:17:47.534Z,18.95
2018-09-25T15:20:21.210Z,18.88
2018-09-25T15:22:54.688Z,18.91
2018-09-25T15:25:28.232Z,18.89
2018-09-25T15:28:01.990Z,18.74
2018-09-25T15:30:35.665Z,18.75
2018-09-25T15:33:09.562Z,18.78
2018-09-25T15:35:43.330Z,18.75
2018-09-25T15:38:16.874Z,18.75
2018-09-25T15:40:50.546Z,18.83
2018-09-25T15:43:24.194Z,18.86
2018-09-25T15:45:57.853Z,18.92
2018-09-25T15:48:31.505Z,18.94
2018-09-25T15:51:05.164Z,18.97
2018-09-25T15:53:38.781Z,19.00
2018-09-25T15:56:12.249Z,18.99
2018-09-25T15:58:45.925Z,19.14
2018-09-25T16:01:19.554Z,19.05
2018-09-25T16:03:53.185Z,18.99
2018-09-25T16:06:26.726Z,18.96
2018-09-25T16:09:00.354Z,18.98
2018-09-25T16:11:33.944Z,19.01
2018-09-25T16:14:07.702Z,19.06
2018-09-25T16:16:41.161Z,19.09
2018-09-25T16:19:14.834Z,19.08
2018-09-25T16:21:48.480Z,19.02
2018-09-25T16:24:22.070Z,18.84
2018-09-25T16:26:55.660Z,18.64
2018-09-25T16:29:29.270Z,18.46
2018-09-25T16:32:03.121Z,18.37
2018-09-25T16:34:36.765Z,18.33
2018-09-25T16:37:10.601Z,18.26
2018-09-25T16:39:44.134Z,18.19
2018-09-25T16:42:18.076Z,18.11
2018-09-25T16:44:51.685Z,18.05
2018-09-25T16:47:25.356Z,17.96
2018-09-25T16:49:58.874Z,17.86
2018-09-25T16:52:32.397Z,17.82
2018-09-25T16:55:06.121Z,17.79
2018-09-25T16:57:39.815Z,17.71
2018-09-25T17:00:13.634Z,17.64
2018-09-25T17:02:47.141Z,17.56
2018-09-25T17:05:20.693Z,17.49
2018-09-25T17:07:54.187Z,17.44
2018-09-25T17:10:27.950Z,17.39
2018-09-25T17:13:02.005Z,17.37
2018-09-25T17:15:35.754Z,17.37
2018-09-25T17:18:09.383Z,17.38
2018-09-25T17:20:42.973Z,17.36
2018-09-25T17:23:16.674Z,17.26
2018-09-25T17:25:50.433Z,17.22
2018-09-25T17:28:23.997Z,17.06
2018-09-25T17:30:57.626Z,16.98
2018-09-25T17:33:31.181Z,16.98
2018-09-25T17:36:04.784Z,16.98
2018-09-25T17:38:38.658Z,16.97
2018-09-25T17:41:12.461Z,16.91
2018-09-25T17:43:46.062Z,16.85
2018-09-25T17:46:19.733Z,16.79
2018-09-25T17:48:53.432Z,16.68
2018-09-25T17:51:27.062Z,16.66
2018-09-25T17:54:01.048Z,16.69
2018-09-25T17:56:34.737Z,16.62
2018-09-25T17:59:08.285Z,16.33
2018-09-25T18:01:41.741Z,16.15
2018-09-25T18:04:15.282Z,16.05
2018-09-25T18:06:48.833Z,15.98
2018-09-25T18:09:22.446Z,15.90
2018-09-25T18:11:56.129Z,15.82
2018-09-25T18:14:29.700Z,15.73
2018-09-25T18:17:03.438Z,15.70
2018-09-25T18:19:36.905Z,15.64
2018-09-25T18:22:10.543Z,15.70
2018-09-25T18:24:44.172Z,15.85
2018-09-25T18:27:17.677Z,15.75
2018-09-25T18:29:51.246Z,15.78
2018-09-25T18:32:24.949Z,15.78
2018-09-25T18:34:58.430Z,15.74
2018-09-25T18:37:31.965Z,15.69
2018-09-25T18:40:05.487Z,15.65
2018-09-25T18:42:39.021Z,15.58
2018-09-25T18:45:12.749Z,15.57
2018-09-25T18:47:46.277Z,15.56
2018-09-25T18:50:19.769Z,15.58
2018-09-25T18:52:53.525Z,15.52
2018-09-25T18:55:27.124Z,15.46
2018-09-25T18:58:00.810Z,15.36
2018-09-25T19:00:34.600Z,15.32
2018-09-25T19:03:08.152Z,15.32
2018-09-25T19:05:41.800Z,15.28
2018-09-25T19:08:15.213Z,15.28
2018-09-25T19:10:48.737Z,15.24
2018-09-25T19:13:22.637Z,15.22
2018-09-25T19:15:56.189Z,15.18
2018-09-25T19:18:29.838Z,15.15
2018-09-25T19:21:03.417Z,15.13
2018-09-25T19:23:37.084Z,15.08
2018-09-25T19:26:10.713Z,15.02
2018-09-25T19:28:44.469Z,14.96
2018-09-25T19:31:18.316Z,14.95
2018-09-25T19:33:51.844Z,14.93
2018-09-25T19:36:25.486Z,14.88
2018-09-25T19:38:59.101Z,14.86
2018-09-25T19:41:33.031Z,14.85
2018-09-25T19:44:06.606Z,14.78
2018-09-25T19:46:40.402Z,14.73
2018-09-25T19:49:13.966Z,14.69
2018-09-25T19:51:47.554Z,14.67
2018-09-25T19:54:21.444Z,14.64
2018-09-25T19:56:55.114Z,14.58
2018-09-25T19:59:28.623Z,14.56
2018-09-25T20:02:02.511Z,14.54
2018-09-25T20:04:36.277Z,14.45
2018-09-25T20:07:10.345Z,14.30
2018-09-25T20:09:44.032Z,14.22
2018-09-25T20:12:17.674Z,14.13
2018-09-25T20:14:51.366Z,14.16
2018-09-25T20:17:25.035Z,14.20
2018-09-25T20:19:58.951Z,14.16
2018-09-25T20:22:32.553Z,14.16
2018-09-25T20:25:06.273Z,14.15
2018-09-25T20:27:40.110Z,14.14
2018-09-25T20:30:13.777Z,14.13
2018-09-25T20:32:53.293Z,14.10
2018-09-25T20:35:27.141Z,14.09
2018-09-25T20:38:00.677Z,14.04
2018-09-25T20:40:34.378Z,14.02
2018-09-25T20:43:07.953Z,14.03
2018-09-25T20:45:41.604Z,13.99
2018-09-25T20:48:15.343Z,13.96
2018-09-25T20:50:48.897Z,13.94
2018-09-25T20:53:22.353Z,13.93
2018-09-25T20:55:56.041Z,13.82
2018-09-25T20:58:29.488Z,13.83
2018-09-25T21:01:03.109Z,13.81
2018-09-25T21:03:36.734Z,13.81
2018-09-25T21:06:10.285Z,13.78
2018-09-25T21:08:43.884Z,13.76
2018-09-25T21:11:17.535Z,13.75
2018-09-25T21:13:51.209Z,13.72
2018-09-25T21:16:24.805Z,13.72
2018-09-25T21:18:58.406Z,13.71
2018-09-25T21:21:32.197Z,13.70
2018-09-25T21:24:05.679Z,13.69
2018-09-25T21:26:39.179Z,13.68
2018-09-25T21:29:12.792Z,13.66
2018-09-25T21:31:46.314Z,13.63
2018-09-25T21:34:19.842Z,13.60
2018-09-25T21:36:53.329Z,13.59
2018-09-25T21:39:26.834Z,13.60
2018-09-25T21:42:00.331Z,13.61
2018-09-25T21:44:33.907Z,13.60
2018-09-25T21:47:07.433Z,13.61
2018-09-25T21:49:40.901Z,13.60
2018-09-25T21:52:14.374Z,13.59
2018-09-25T21:54:47.889Z,13.58
2018-09-25T21:57:21.747Z,13.58
2018-09-25T21:59:55.148Z,13.55
2018-09-25T22:02:28.673Z,13.49
2018-09-25T22:05:02.265Z,13.44
2018-09-25T22:07:35.921Z,13.44
2018-09-25T22:10:09.570Z,13.45
2018-09-25T22:12:43.180Z,13.42
2018-09-25T22:15:16.789Z,13.40
2018-09-25T22:17:50.530Z,13.39
2018-09-25T22:20:24.309Z,13.36
2018-09-25T22:22:58.025Z,13.33
2018-09-25T22:25:31.570Z,13.27
2018-09-25T22:28:05.130Z,13.28
2018-09-25T22:30:38.773Z,13.28
2018-09-25T22:33:12.514Z,13.27
2018-09-25T22:35:46.236Z,13.24
2018-09-25T22:38:19.969Z,13.24
2018-09-25T22:40:53.481Z,13.24
2018-09-25T22:43:26.969Z,13.20
2018-09-25T22:46:00.493Z,13.18
2018-09-25T22:51:25.204Z,13.14
2018-09-25T22:53:58.681Z,13.15
2018-09-25T22:56:32.158Z,13.16
2018-09-25T22:59:05.709Z,13.15
2018-09-25T23:01:39.459Z,13.14
2018-09-25T23:04:13.046Z,13.14
2018-09-25T23:06:46.577Z,13.11
2018-09-25T23:09:20.161Z,13.07
2018-09-25T23:11:53.697Z,13.04
2018-09-25T23:14:27.178Z,13.02
2018-09-25T23:17:00.941Z,13.01
2018-09-25T23:19:34.526Z,12.98
2018-09-25T23:22:08.133Z,12.98
2018-09-25T23:24:41.635Z,12.99
2018-09-25T23:27:15.260Z,12.99
2018-09-25T23:29:48.905Z,12.95
2018-09-25T23:32:22.594Z,12.96
2018-09-25T23:34:56.065Z,12.93
2018-09-25T23:37:29.592Z,12.92
2018-09-25T23:40:03.246Z,12.86
2018-09-25T23:42:36.769Z,12.84
2018-09-25T23:46:19.236Z,12.86
2018-09-25T23:48:57.758Z,12.76
2018-09-25T23:51:30.636Z,12.73
2018-09-25T23:54:05.538Z,12.68
2018-09-25T23:56:39.325Z,12.65
